sensor_id;sensor_type;location;lat;lon;timestamp;pressure;altitude;pressure_sealevel;temperature;humidity
46211;BME280;52144;48.040;-1.594;2023-05-07T00:01:14;101003.44;;;18.19;100.00
46211;BME280;52144;48.040;-1.594;2023-05-07T00:03:45;101004.63;;;18.28;100.00
46211;BME280;52144;48.040;-1.594;2023-05-07T00:06:13;100999.38;;;18.14;100.00
46211;BME280;52144;48.040;-1.594;2023-05-07T00:08:41;100998.50;;;18.13;100.00
46211;BME280;52144;48.040;-1.594;2023-05-07T00:11:08;101005.88;;;18.35;100.00
46211;BME280;52144;48.040;-1.594;2023-05-07T00:13:36;101005.75;;;18.13;100.00
46211;BME280;52144;48.040;-1.594;2023-05-07T00:16:05;100999.41;;;18.38;100.00
46211;BME280;52144;48.040;-1.594;2023-05-07T00:18:33;101001.47;;;18.34;100.00
46211;BME280;52144;48.040;-1.594;2023-05-07T00:21:01;100995.81;;;18.13;100.00
46211;BME280;52144;48.040;-1.594;2023-05-07T00:23:29;101009.59;;;18.21;100.00
46211;BME280;52144;48.040;-1.594;2023-05-07T00:25:57;101011.22;;;18.24;100.00
46211;BME280;52144;48.040;-1.594;2023-05-07T00:28:25;101010.09;;;18.02;100.00
46211;BME280;52144;48.040;-1.594;2023-05-07T00:30:52;101011.25;;;18.48;100.00
46211;BME280;52144;48.040;-1.594;2023-05-07T00:33:21;101013.03;;;18.23;100.00
46211;BME280;52144;48.040;-1.594;2023-05-07T00:35:49;101012.44;;;18.68;100.00
46211;BME280;52144;48.040;-1.594;2023-05-07T00:38:17;101012.22;;;18.71;100.00
46211;BME280;52144;48.040;-1.594;2023-05-07T00:40:45;101011.69;;;18.66;100.00
46211;BME280;52144;48.040;-1.594;2023-05-07T00:43:13;101004.50;;;18.54;100.00
46211;BME280;52144;48.040;-1.594;2023-05-07T00:45:41;101011.38;;;18.10;100.00
46211;BME280;52144;48.040;-1.594;2023-05-07T00:48:09;101006.81;;;18.47;100.00
46211;BME280;52144;48.040;-1.594;2023-05-07T00:50:38;101002.28;;;18.48;100.00
46211;BME280;52144;48.040;-1.594;2023-05-07T00:53:06;101005.97;;;18.47;100.00
46211;BME280;52144;48.040;-1.594;2023-05-07T00:55:35;101006.53;;;18.39;100.00
46211;BME280;52144;48.040;-1.594;2023-05-07T00:58:03;101012.66;;;18.65;100.00
46211;BME280;52144;48.040;-1.594;2023-05-07T01:00:31;101009.72;;;18.68;100.00
46211;BME280;52144;48.040;-1.594;2023-05-07T01:02:58;101007.00;;;18.57;100.00
46211;BME280;52144;48.040;-1.594;2023-05-07T01:05:27;101005.78;;;18.37;100.00
46211;BME280;52144;48.040;-1.594;2023-05-07T01:07:59;101008.56;;;18.35;100.00
46211;BME280;52144;48.040;-1.594;2023-05-07T01:10:27;101012.09;;;18.49;100.00
46211;BME280;52144;48.040;-1.594;2023-05-07T01:12:58;101012.00;;;18.50;100.00
46211;BME280;52144;48.040;-1.594;2023-05-07T01:15:27;101009.91;;;18.54;100.00
46211;BME280;52144;48.040;-1.594;2023-05-07T01:17:55;101009.88;;;18.30;100.00
46211;BME280;52144;48.040;-1.594;2023-05-07T01:20:23;101007.69;;;18.11;100.00
46211;BME280;52144;48.040;-1.594;2023-05-07T01:22:53;100999.28;;;18.39;100.00
46211;BME280;52144;48.040;-1.594;2023-05-07T01:25:21;100993.84;;;18.28;100.00
46211;BME280;52144;48.040;-1.594;2023-05-07T01:27:49;100993.31;;;18.47;100.00
46211;BME280;52144;48.040;-1.594;2023-05-07T01:30:18;100994.06;;;18.25;100.00
46211;BME280;52144;48.040;-1.594;2023-05-07T01:32:51;100991.59;;;18.22;100.00
46211;BME280;52144;48.040;-1.594;2023-05-07T01:35:22;100995.34;;;18.32;100.00
46211;BME280;52144;48.040;-1.594;2023-05-07T01:37:54;100997.88;;;18.10;100.00
46211;BME280;52144;48.040;-1.594;2023-05-07T01:40:22;100995.69;;;18.15;100.00
46211;BME280;52144;48.040;-1.594;2023-05-07T01:42:50;101001.19;;;18.26;100.00
46211;BME280;52144;48.040;-1.594;2023-05-07T01:45:19;101001.88;;;18.04;100.00
46211;BME280;52144;48.040;-1.594;2023-05-07T01:47:47;100998.41;;;18.15;100.00
46211;BME280;52144;48.040;-1.594;2023-05-07T01:50:17;100999.63;;;17.98;100.00
46211;BME280;52144;48.040;-1.594;2023-05-07T01:52:46;100992.94;;;18.28;100.00
46211;BME280;52144;48.040;-1.594;2023-05-07T01:55:15;100999.53;;;18.36;100.00
46211;BME280;52144;48.040;-1.594;2023-05-07T01:57:43;101001.47;;;18.34;100.00
46211;BME280;52144;48.040;-1.594;2023-05-07T02:00:12;100997.38;;;18.29;100.00
46211;BME280;52144;48.040;-1.594;2023-05-07T02:02:40;100999.44;;;18.25;99.23
46211;BME280;52144;48.040;-1.594;2023-05-07T02:05:08;101004.47;;;18.06;100.00
46211;BME280;52144;48.040;-1.594;2023-05-07T02:07:36;101000.59;;;18.10;100.00
46211;BME280;52144;48.040;-1.594;2023-05-07T02:10:05;101003.84;;;18.02;99.69
46211;BME280;52144;48.040;-1.594;2023-05-07T02:12:34;101004.81;;;17.88;99.87
46211;BME280;52144;48.040;-1.594;2023-05-07T02:15:02;101010.97;;;17.90;100.00
46211;BME280;52144;48.040;-1.594;2023-05-07T02:17:30;101011.97;;;17.89;100.00
46211;BME280;52144;48.040;-1.594;2023-05-07T02:19:59;101011.81;;;18.03;100.00
46211;BME280;52144;48.040;-1.594;2023-05-07T02:22:27;101016.47;;;18.01;100.00
46211;BME280;52144;48.040;-1.594;2023-05-07T02:24:54;101021.31;;;17.96;100.00
46211;BME280;52144;48.040;-1.594;2023-05-07T02:27:22;101017.22;;;18.03;100.00
46211;BME280;52144;48.040;-1.594;2023-05-07T02:29:51;101026.06;;;18.06;100.00
46211;BME280;52144;48.040;-1.594;2023-05-07T02:32:19;101021.53;;;17.93;99.80
46211;BME280;52144;48.040;-1.594;2023-05-07T02:34:50;101026.38;;;17.88;100.00
46211;BME280;52144;48.040;-1.594;2023-05-07T02:37:17;101018.66;;;17.83;100.00
46211;BME280;52144;48.040;-1.594;2023-05-07T02:39:45;101019.59;;;17.70;100.00
46211;BME280;52144;48.040;-1.594;2023-05-07T02:42:13;101027.69;;;17.70;100.00
46211;BME280;52144;48.040;-1.594;2023-05-07T02:44:41;101025.88;;;17.83;100.00
46211;BME280;52144;48.040;-1.594;2023-05-07T02:47:10;101035.97;;;17.79;100.00
46211;BME280;52144;48.040;-1.594;2023-05-07T02:49:39;101034.72;;;17.85;100.00
46211;BME280;52144;48.040;-1.594;2023-05-07T02:52:07;101044.41;;;17.75;99.59
46211;BME280;52144;48.040;-1.594;2023-05-07T02:54:35;101043.09;;;17.68;100.00
46211;BME280;52144;48.040;-1.594;2023-05-07T02:57:03;101048.03;;;17.74;100.00
46211;BME280;52144;48.040;-1.594;2023-05-07T02:59:30;101044.81;;;17.81;100.00
46211;BME280;52144;48.040;-1.594;2023-05-07T03:01:58;101053.75;;;17.95;100.00
46211;BME280;52144;48.040;-1.594;2023-05-07T03:04:27;101048.81;;;18.01;100.00
46211;BME280;52144;48.040;-1.594;2023-05-07T03:06:55;101054.50;;;17.97;100.00
46211;BME280;52144;48.040;-1.594;2023-05-07T03:09:23;101060.69;;;17.86;100.00
46211;BME280;52144;48.040;-1.594;2023-05-07T03:11:51;101049.16;;;17.84;100.00
46211;BME280;52144;48.040;-1.594;2023-05-07T03:14:19;101056.59;;;17.93;100.00
46211;BME280;52144;48.040;-1.594;2023-05-07T03:16:46;101051.47;;;17.50;100.00
46211;BME280;52144;48.040;-1.594;2023-05-07T03:19:14;101054.09;;;17.90;100.00
46211;BME280;52144;48.040;-1.594;2023-05-07T03:21:43;101055.72;;;17.93;100.00
46211;BME280;52144;48.040;-1.594;2023-05-07T03:24:11;101062.28;;;18.01;100.00
46211;BME280;52144;48.040;-1.594;2023-05-07T03:26:39;101056.31;;;18.09;100.00
46211;BME280;52144;48.040;-1.594;2023-05-07T03:29:06;101061.16;;;18.17;100.00
46211;BME280;52144;48.040;-1.594;2023-05-07T03:31:34;101062.69;;;18.21;100.00
46211;BME280;52144;48.040;-1.594;2023-05-07T03:34:02;101057.53;;;18.05;100.00
46211;BME280;52144;48.040;-1.594;2023-05-07T03:36:30;101063.50;;;17.97;100.00
46211;BME280;52144;48.040;-1.594;2023-05-07T03:38:59;101073.97;;;17.89;100.00
46211;BME280;52144;48.040;-1.594;2023-05-07T03:41:27;101074.13;;;17.99;100.00
46211;BME280;52144;48.040;-1.594;2023-05-07T03:43:56;101075.09;;;18.11;100.00
46211;BME280;52144;48.040;-1.594;2023-05-07T03:46:23;101068.31;;;18.18;100.00
46211;BME280;52144;48.040;-1.594;2023-05-07T03:48:52;101072.63;;;18.08;100.00
46211;BME280;52144;48.040;-1.594;2023-05-07T03:51:20;101072.72;;;18.19;100.00
46211;BME280;52144;48.040;-1.594;2023-05-07T03:53:48;101063.66;;;18.20;100.00
46211;BME280;52144;48.040;-1.594;2023-05-07T03:56:17;101077.81;;;17.98;100.00
46211;BME280;52144;48.040;-1.594;2023-05-07T03:58:45;101080.50;;;18.11;100.00
46211;BME280;52144;48.040;-1.594;2023-05-07T04:01:13;101071.75;;;18.07;100.00
46211;BME280;52144;48.040;-1.594;2023-05-07T04:03:40;101070.72;;;17.84;100.00
46211;BME280;52144;48.040;-1.594;2023-05-07T04:06:08;101078.47;;;18.01;100.00
46211;BME280;52144;48.040;-1.594;2023-05-07T04:08:37;101082.13;;;17.75;100.00
46211;BME280;52144;48.040;-1.594;2023-05-07T04:11:04;101084.00;;;17.87;100.00
46211;BME280;52144;48.040;-1.594;2023-05-07T04:13:33;101087.84;;;17.96;100.00
46211;BME280;52144;48.040;-1.594;2023-05-07T04:16:02;101086.44;;;18.16;100.00
46211;BME280;52144;48.040;-1.594;2023-05-07T04:18:30;101088.13;;;18.17;100.00
46211;BME280;52144;48.040;-1.594;2023-05-07T04:20:58;101085.75;;;18.25;100.00
46211;BME280;52144;48.040;-1.594;2023-05-07T04:23:26;101090.88;;;17.91;100.00
46211;BME280;52144;48.040;-1.594;2023-05-07T04:25:53;101090.97;;;18.02;100.00
46211;BME280;52144;48.040;-1.594;2023-05-07T04:28:21;101097.72;;;18.21;100.00
46211;BME280;52144;48.040;-1.594;2023-05-07T04:30:50;101089.94;;;18.29;100.00
46211;BME280;52144;48.040;-1.594;2023-05-07T04:33:18;101096.78;;;17.96;100.00
46211;BME280;52144;48.040;-1.594;2023-05-07T04:35:46;101081.91;;;18.03;100.00
46211;BME280;52144;48.040;-1.594;2023-05-07T04:38:14;101089.66;;;17.70;100.00
46211;BME280;52144;48.040;-1.594;2023-05-07T04:40:41;101083.06;;;17.74;100.00
46211;BME280;52144;48.040;-1.594;2023-05-07T04:43:09;101087.91;;;17.69;100.00
46211;BME280;52144;48.040;-1.594;2023-05-07T04:45:37;101080.94;;;17.79;100.00
46211;BME280;52144;48.040;-1.594;2023-05-07T04:48:09;101085.94;;;17.85;100.00
46211;BME280;52144;48.040;-1.594;2023-05-07T04:50:37;101087.09;;;17.94;100.00
46211;BME280;52144;48.040;-1.594;2023-05-07T04:53:05;101096.78;;;17.96;100.00
46211;BME280;52144;48.040;-1.594;2023-05-07T04:55:32;101099.56;;;17.82;100.00
46211;BME280;52144;48.040;-1.594;2023-05-07T04:58:00;101096.34;;;18.02;100.00
46211;BME280;52144;48.040;-1.594;2023-05-07T05:00:28;101108.00;;;17.90;100.00
46211;BME280;52144;48.040;-1.594;2023-05-07T05:02:56;101109.63;;;18.18;100.00
46211;BME280;52144;48.040;-1.594;2023-05-07T05:05:25;101117.94;;;18.02;100.00
46211;BME280;52144;48.040;-1.594;2023-05-07T05:07:53;101113.72;;;17.98;100.00
46211;BME280;52144;48.040;-1.594;2023-05-07T05:10:21;101115.97;;;18.04;100.00
46211;BME280;52144;48.040;-1.594;2023-05-07T05:12:50;101113.63;;;17.87;100.00
46211;BME280;52144;48.040;-1.594;2023-05-07T05:15:18;101125.50;;;17.97;100.00
46211;BME280;52144;48.040;-1.594;2023-05-07T05:17:46;101117.91;;;17.77;100.00
46211;BME280;52144;48.040;-1.594;2023-05-07T05:20:13;101115.03;;;18.06;100.00
46211;BME280;52144;48.040;-1.594;2023-05-07T05:22:43;101117.69;;;17.67;100.00
46211;BME280;52144;48.040;-1.594;2023-05-07T05:25:11;101122.03;;;17.95;100.00
46211;BME280;52144;48.040;-1.594;2023-05-07T05:27:38;101123.50;;;17.74;100.00
46211;BME280;52144;48.040;-1.594;2023-05-07T05:30:07;101127.63;;;17.92;100.00
46211;BME280;52144;48.040;-1.594;2023-05-07T05:32:35;101129.59;;;17.50;100.00
46211;BME280;52144;48.040;-1.594;2023-05-07T05:35:04;101136.69;;;18.04;100.00
46211;BME280;52144;48.040;-1.594;2023-05-07T05:37:32;101132.28;;;17.90;100.00
46211;BME280;52144;48.040;-1.594;2023-05-07T05:40:01;101139.19;;;18.20;100.00
46211;BME280;52144;48.040;-1.594;2023-05-07T05:42:29;101137.78;;;18.01;100.00
46211;BME280;52144;48.040;-1.594;2023-05-07T05:44:57;101140.75;;;18.35;100.00
46211;BME280;52144;48.040;-1.594;2023-05-07T05:47:25;101142.19;;;17.90;100.00
46211;BME280;52144;48.040;-1.594;2023-05-07T05:49:52;101145.75;;;18.03;100.00
46211;BME280;52144;48.040;-1.594;2023-05-07T05:52:20;101145.66;;;18.04;100.00
46211;BME280;52144;48.040;-1.594;2023-05-07T05:54:50;101153.09;;;17.88;100.00
46211;BME280;52144;48.040;-1.594;2023-05-07T05:57:19;101149.69;;;17.72;100.00
46211;BME280;52144;48.040;-1.594;2023-05-07T05:59:47;101161.00;;;17.64;100.00
46211;BME280;52144;48.040;-1.594;2023-05-07T06:02:14;101158.56;;;17.87;100.00
46211;BME280;52144;48.040;-1.594;2023-05-07T06:04:42;101169.03;;;18.42;100.00
46211;BME280;52144;48.040;-1.594;2023-05-07T06:07:10;101169.59;;;17.83;100.00
46211;BME280;52144;48.040;-1.594;2023-05-07T06:09:38;101167.25;;;17.64;100.00
46211;BME280;52144;48.040;-1.594;2023-05-07T06:12:06;101177.66;;;18.09;100.00
46211;BME280;52144;48.040;-1.594;2023-05-07T06:14:35;101172.00;;;17.74;100.00
46211;BME280;52144;48.040;-1.594;2023-05-07T06:17:02;101170.34;;;17.98;100.00
46211;BME280;52144;48.040;-1.594;2023-05-07T06:19:30;101172.28;;;18.09;100.00
46211;BME280;52144;48.040;-1.594;2023-05-07T06:21:58;101179.41;;;18.10;100.00
46211;BME280;52144;48.040;-1.594;2023-05-07T06:24:28;101184.56;;;17.88;100.00
46211;BME280;52144;48.040;-1.594;2023-05-07T06:26:56;101187.91;;;18.17;100.00
46211;BME280;52144;48.040;-1.594;2023-05-07T06:29:25;101192.69;;;18.26;100.00
46211;BME280;52144;48.040;-1.594;2023-05-07T06:31:54;101190.38;;;18.58;100.00
46211;BME280;52144;48.040;-1.594;2023-05-07T06:34:22;101189.94;;;18.64;100.00
46211;BME280;52144;48.040;-1.594;2023-05-07T06:36:50;101195.19;;;18.66;100.00
46211;BME280;52144;48.040;-1.594;2023-05-07T06:39:18;101200.06;;;18.74;100.00
46211;BME280;52144;48.040;-1.594;2023-05-07T06:41:45;101204.44;;;18.51;100.00
46211;BME280;52144;48.040;-1.594;2023-05-07T06:44:13;101205.03;;;18.80;100.00
46211;BME280;52144;48.040;-1.594;2023-05-07T06:46:41;101200.88;;;19.00;100.00
46211;BME280;52144;48.040;-1.594;2023-05-07T06:49:10;101208.63;;;19.17;100.00
46211;BME280;52144;48.040;-1.594;2023-05-07T06:51:38;101212.50;;;19.61;100.00
46211;BME280;52144;48.040;-1.594;2023-05-07T06:54:06;101212.00;;;19.32;100.00
46211;BME280;52144;48.040;-1.594;2023-05-07T06:56:34;101209.41;;;19.55;100.00
46211;BME280;52144;48.040;-1.594;2023-05-07T06:59:02;101218.19;;;18.84;100.00
46211;BME280;52144;48.040;-1.594;2023-05-07T07:01:30;101222.25;;;18.40;100.00
46211;BME280;52144;48.040;-1.594;2023-05-07T07:03:58;101221.88;;;18.83;100.00
46211;BME280;52144;48.040;-1.594;2023-05-07T07:06:27;101224.66;;;19.32;100.00
46211;BME280;52144;48.040;-1.594;2023-05-07T07:08:55;101217.91;;;19.61;100.00
46211;BME280;52144;48.040;-1.594;2023-05-07T07:11:22;101220.56;;;19.50;98.37
46211;BME280;52144;48.040;-1.594;2023-05-07T07:13:50;101217.78;;;19.39;98.52
46211;BME280;52144;48.040;-1.594;2023-05-07T07:16:18;101229.06;;;19.81;96.53
46211;BME280;52144;48.040;-1.594;2023-05-07T07:18:46;101228.22;;;19.56;96.57
46211;BME280;52144;48.040;-1.594;2023-05-07T07:21:13;101236.78;;;20.21;94.79
46211;BME280;52144;48.040;-1.594;2023-05-07T07:23:43;101232.25;;;19.86;94.19
46211;BME280;52144;48.040;-1.594;2023-05-07T07:26:10;101230.84;;;19.21;98.07
46211;BME280;52144;48.040;-1.594;2023-05-07T07:28:44;101233.78;;;20.01;95.09
46211;BME280;52144;48.040;-1.594;2023-05-07T07:31:12;101246.97;;;19.71;96.10
46211;BME280;52144;48.040;-1.594;2023-05-07T07:33:40;101248.00;;;18.96;100.00
46211;BME280;52144;48.040;-1.594;2023-05-07T07:36:09;101244.25;;;19.47;98.29
46211;BME280;52144;48.040;-1.594;2023-05-07T07:38:37;101245.84;;;19.97;93.86
46211;BME280;52144;48.040;-1.594;2023-05-07T07:41:07;101249.81;;;19.32;98.46
46211;BME280;52144;48.040;-1.594;2023-05-07T07:43:35;101252.53;;;20.16;94.71
46211;BME280;52144;48.040;-1.594;2023-05-07T07:46:03;101258.50;;;20.43;91.12
46211;BME280;52144;48.040;-1.594;2023-05-07T07:48:31;101254.44;;;20.02;93.28
46211;BME280;52144;48.040;-1.594;2023-05-07T07:50:59;101263.56;;;19.53;97.07
46211;BME280;52144;48.040;-1.594;2023-05-07T07:53:26;101269.91;;;18.78;100.00
46211;BME280;52144;48.040;-1.594;2023-05-07T07:55:54;101277.38;;;18.36;100.00
46211;BME280;52144;48.040;-1.594;2023-05-07T07:58:26;101272.41;;;18.56;100.00
46211;BME280;52144;48.040;-1.594;2023-05-07T08:00:54;101277.25;;;18.25;100.00
46211;BME280;52144;48.040;-1.594;2023-05-07T08:03:22;101279.50;;;18.06;100.00
46211;BME280;52144;48.040;-1.594;2023-05-07T08:05:50;101282.13;;;18.20;100.00
46211;BME280;52144;48.040;-1.594;2023-05-07T08:08:18;101280.38;;;18.06;100.00
46211;BME280;52144;48.040;-1.594;2023-05-07T08:10:45;101286.44;;;18.22;100.00
46211;BME280;52144;48.040;-1.594;2023-05-07T08:13:17;101283.41;;;18.14;100.00
46211;BME280;52144;48.040;-1.594;2023-05-07T08:15:46;101292.06;;;18.45;100.00
46211;BME280;52144;48.040;-1.594;2023-05-07T08:18:13;101288.69;;;18.41;100.00
46211;BME280;52144;48.040;-1.594;2023-05-07T08:20:41;101292.34;;;18.28;100.00
46211;BME280;52144;48.040;-1.594;2023-05-07T08:23:09;101289.66;;;18.28;100.00
46211;BME280;52144;48.040;-1.594;2023-05-07T08:25:37;101302.94;;;18.43;100.00
46211;BME280;52144;48.040;-1.594;2023-05-07T08:28:04;101290.72;;;17.99;100.00
46211;BME280;52144;48.040;-1.594;2023-05-07T08:30:35;101298.94;;;17.56;100.00
46211;BME280;52144;48.040;-1.594;2023-05-07T08:33:04;101301.91;;;17.93;100.00
46211;BME280;52144;48.040;-1.594;2023-05-07T08:35:32;101299.44;;;18.03;100.00
46211;BME280;52144;48.040;-1.594;2023-05-07T08:38:00;101307.31;;;17.93;100.00
46211;BME280;52144;48.040;-1.594;2023-05-07T08:40:28;101302.63;;;18.35;100.00
46211;BME280;52144;48.040;-1.594;2023-05-07T08:42:56;101310.50;;;18.64;100.00
46211;BME280;52144;48.040;-1.594;2023-05-07T08:45:26;101302.53;;;18.75;100.00
46211;BME280;52144;48.040;-1.594;2023-05-07T08:47:58;101302.63;;;18.74;100.00
46211;BME280;52144;48.040;-1.594;2023-05-07T08:50:28;101309.97;;;18.59;100.00
46211;BME280;52144;48.040;-1.594;2023-05-07T08:52:56;101309.53;;;18.91;100.00
46211;BME280;52144;48.040;-1.594;2023-05-07T08:55:24;101307.53;;;19.31;100.00
46211;BME280;52144;48.040;-1.594;2023-05-07T08:57:52;101317.31;;;19.08;100.00
46211;BME280;52144;48.040;-1.594;2023-05-07T09:00:20;101315.75;;;19.30;100.00
46211;BME280;52144;48.040;-1.594;2023-05-07T09:02:48;101320.88;;;19.45;100.00
46211;BME280;52144;48.040;-1.594;2023-05-07T09:05:16;101317.84;;;19.87;100.00
46211;BME280;52144;48.040;-1.594;2023-05-07T09:07:45;101320.53;;;19.87;100.00
46211;BME280;52144;48.040;-1.594;2023-05-07T09:10:13;101326.03;;;20.10;100.00
46211;BME280;52144;48.040;-1.594;2023-05-07T09:12:41;101319.72;;;19.74;100.00
46211;BME280;52144;48.040;-1.594;2023-05-07T09:15:09;101323.41;;;19.73;100.00
46211;BME280;52144;48.040;-1.594;2023-05-07T09:17:38;101322.88;;;20.16;100.00
46211;BME280;52144;48.040;-1.594;2023-05-07T09:20:08;101318.53;;;19.41;100.00
46211;BME280;52144;48.040;-1.594;2023-05-07T09:22:37;101321.69;;;19.72;100.00
46211;BME280;52144;48.040;-1.594;2023-05-07T09:25:07;101327.16;;;19.83;100.00
46211;BME280;52144;48.040;-1.594;2023-05-07T09:27:36;101330.56;;;19.61;100.00
46211;BME280;52144;48.040;-1.594;2023-05-07T09:30:04;101341.03;;;19.29;100.00
46211;BME280;52144;48.040;-1.594;2023-05-07T09:32:35;101342.34;;;19.73;100.00
46211;BME280;52144;48.040;-1.594;2023-05-07T09:35:05;101338.25;;;20.15;100.00
46211;BME280;52144;48.040;-1.594;2023-05-07T09:37:33;101340.53;;;20.09;100.00
46211;BME280;52144;48.040;-1.594;2023-05-07T09:40:01;101338.63;;;19.87;99.04
46211;BME280;52144;48.040;-1.594;2023-05-07T09:42:31;101333.03;;;19.77;100.00
46211;BME280;52144;48.040;-1.594;2023-05-07T09:44:59;101339.44;;;20.47;100.00
46211;BME280;52144;48.040;-1.594;2023-05-07T09:47:30;101343.38;;;21.00;94.40
46211;BME280;52144;48.040;-1.594;2023-05-07T09:50:05;101348.16;;;21.19;91.92
46211;BME280;52144;48.040;-1.594;2023-05-07T09:52:38;101351.22;;;21.37;89.79
46211;BME280;52144;48.040;-1.594;2023-05-07T09:55:07;101355.06;;;21.01;90.63
46211;BME280;52144;48.040;-1.594;2023-05-07T09:57:37;101349.63;;;21.01;96.16
46211;BME280;52144;48.040;-1.594;2023-05-07T10:00:07;101349.34;;;21.27;88.61
46211;BME280;52144;48.040;-1.594;2023-05-07T10:02:36;101353.53;;;21.53;88.28
46211;BME280;52144;48.040;-1.594;2023-05-07T10:05:05;101351.94;;;20.72;94.84
46211;BME280;52144;48.040;-1.594;2023-05-07T10:07:33;101351.28;;;20.21;90.08
46211;BME280;52144;48.040;-1.594;2023-05-07T10:10:03;101354.19;;;20.07;95.96
46211;BME280;52144;48.040;-1.594;2023-05-07T10:12:32;101364.38;;;19.79;94.42
46211;BME280;52144;48.040;-1.594;2023-05-07T10:15:07;101364.84;;;19.97;93.57
46211;BME280;52144;48.040;-1.594;2023-05-07T10:17:35;101371.84;;;20.00;95.18
46211;BME280;52144;48.040;-1.594;2023-05-07T10:20:05;101374.47;;;19.64;98.16
46211;BME280;52144;48.040;-1.594;2023-05-07T10:22:38;101372.38;;;19.81;93.71
46211;BME280;52144;48.040;-1.594;2023-05-07T10:25:09;101380.03;;;19.87;98.23
46211;BME280;52144;48.040;-1.594;2023-05-07T10:27:41;101377.25;;;20.00;96.24
46211;BME280;52144;48.040;-1.594;2023-05-07T10:30:20;101386.56;;;19.72;95.19
46211;BME280;52144;48.040;-1.594;2023-05-07T10:32:59;101391.75;;;19.75;94.72
46211;BME280;52144;48.040;-1.594;2023-05-07T10:35:41;101391.03;;;19.97;96.47
46211;BME280;52144;48.040;-1.594;2023-05-07T10:38:10;101389.47;;;20.41;94.58
46211;BME280;52144;48.040;-1.594;2023-05-07T10:40:38;101387.94;;;20.50;97.92
46211;BME280;52144;48.040;-1.594;2023-05-07T10:43:07;101381.13;;;20.79;94.42
46211;BME280;52144;48.040;-1.594;2023-05-07T10:45:38;101394.19;;;20.86;92.49
46211;BME280;52144;48.040;-1.594;2023-05-07T10:48:06;101397.94;;;21.52;94.50
46211;BME280;52144;48.040;-1.594;2023-05-07T10:51:20;101407.03;;;21.74;88.95
46211;BME280;52144;48.040;-1.594;2023-05-07T10:53:48;101410.25;;;21.56;91.68
46211;BME280;52144;48.040;-1.594;2023-05-07T10:56:26;101413.53;;;21.71;91.16
46211;BME280;52144;48.040;-1.594;2023-05-07T10:59:30;101410.63;;;21.52;83.18
46211;BME280;52144;48.040;-1.594;2023-05-07T11:01:59;101405.16;;;21.40;86.67
46211;BME280;52144;48.040;-1.594;2023-05-07T11:04:29;101404.69;;;21.47;85.86
46211;BME280;52144;48.040;-1.594;2023-05-07T11:07:29;101407.53;;;21.45;83.75
46211;BME280;52144;48.040;-1.594;2023-05-07T11:10:03;101418.47;;;21.10;85.94
46211;BME280;52144;48.040;-1.594;2023-05-07T11:12:53;101409.34;;;21.22;88.05
46211;BME280;52144;48.040;-1.594;2023-05-07T11:15:36;101416.88;;;21.63;88.31
46211;BME280;52144;48.040;-1.594;2023-05-07T11:18:05;101409.38;;;21.56;85.19
46211;BME280;52144;48.040;-1.594;2023-05-07T11:20:55;101413.91;;;21.10;82.89
46211;BME280;52144;48.040;-1.594;2023-05-07T11:26:46;101407.25;;;21.82;81.69
46211;BME280;52144;48.040;-1.594;2023-05-07T11:29:15;101407.53;;;22.11;81.66
46211;BME280;52144;48.040;-1.594;2023-05-07T11:31:50;101417.03;;;22.06;79.36
46211;BME280;52144;48.040;-1.594;2023-05-07T11:34:21;101403.81;;;22.23;83.38
46211;BME280;52144;48.040;-1.594;2023-05-07T11:36:50;101413.78;;;21.79;82.64
46211;BME280;52144;48.040;-1.594;2023-05-07T11:39:25;101418.44;;;21.89;83.95
46211;BME280;52144;48.040;-1.594;2023-05-07T11:41:54;101420.25;;;20.75;87.70
46211;BME280;52144;48.040;-1.594;2023-05-07T11:44:22;101424.66;;;20.41;89.76
46211;BME280;52144;48.040;-1.594;2023-05-07T11:46:50;101429.22;;;20.76;87.49
46211;BME280;52144;48.040;-1.594;2023-05-07T11:49:18;101425.72;;;20.87;84.63
46211;BME280;52144;48.040;-1.594;2023-05-07T11:51:46;101434.53;;;20.77;88.54
46211;BME280;52144;48.040;-1.594;2023-05-07T11:54:16;101435.53;;;20.76;87.45
46211;BME280;52144;48.040;-1.594;2023-05-07T11:56:44;101437.53;;;20.97;88.88
46211;BME280;52144;48.040;-1.594;2023-05-07T11:59:18;101436.06;;;21.04;83.27
46211;BME280;52144;48.040;-1.594;2023-05-07T12:01:46;101439.28;;;21.20;84.42
46211;BME280;52144;48.040;-1.594;2023-05-07T12:04:19;101438.66;;;21.06;87.30
46211;BME280;52144;48.040;-1.594;2023-05-07T12:06:47;101444.09;;;21.17;86.29
46211;BME280;52144;48.040;-1.594;2023-05-07T12:09:17;101442.47;;;21.14;85.88
46211;BME280;52144;48.040;-1.594;2023-05-07T12:11:46;101438.66;;;21.06;87.47
46211;BME280;52144;48.040;-1.594;2023-05-07T12:14:14;101439.69;;;21.27;85.43
46211;BME280;52144;48.040;-1.594;2023-05-07T12:16:44;101454.34;;;21.92;82.68
46211;BME280;52144;48.040;-1.594;2023-05-07T12:19:13;101453.75;;;22.21;81.08
46211;BME280;52144;48.040;-1.594;2023-05-07T12:21:42;101461.47;;;21.93;81.27
46211;BME280;52144;48.040;-1.594;2023-05-07T12:24:09;101455.44;;;21.90;82.65
46211;BME280;52144;48.040;-1.594;2023-05-07T12:26:38;101462.25;;;21.84;78.90
46211;BME280;52144;48.040;-1.594;2023-05-07T12:29:07;101455.59;;;21.54;77.38
46211;BME280;52144;48.040;-1.594;2023-05-07T12:31:35;101458.75;;;21.93;83.63
46211;BME280;52144;48.040;-1.594;2023-05-07T12:34:04;101455.28;;;22.02;78.65
46211;BME280;52144;48.040;-1.594;2023-05-07T12:36:38;101461.81;;;21.10;83.45
46211;BME280;52144;48.040;-1.594;2023-05-07T12:39:06;101458.22;;;20.98;81.74
46211;BME280;52144;48.040;-1.594;2023-05-07T12:41:36;101471.31;;;21.15;84.17
46211;BME280;52144;48.040;-1.594;2023-05-07T12:44:04;101477.47;;;20.47;85.07
46211;BME280;52144;48.040;-1.594;2023-05-07T12:46:32;101472.41;;;20.42;84.86